Akeley, Minnesota
Current Conditions -  °F | °C
As of 4:35 PM on Wednesday 22 Oct 2014 (Local Time) from KY49 Reporting Station
Clear Clear  
Wind Chill: 57°   Ceiling: Unl
Heat Index: 57°   Visibility: 10mi
Dew Point: 42°   Wind: 12mph
Humidity: 58%   Direction: 150°SSE
Pressure: 29.93"   Gusts: 16mph
Location:  47°N, 94.73°W
Report Text: KY49 222135Z AUTO 15010G14KT 10SM CLR 14/06 A2993 RMK AO2 T01380056
Loading
Personal Weather Stations






























Interactive Weather Map
Tropical Storm Tracking
New forecast layout! Learn more

10-Day Weather Forecast

Advertisements
Track Severe Weather on mobile